Hovedside
METAR-TAF:

METAR-TAF

Lufthavner :

Vientiane, Laos

breddegrad: 17-57N, lengdegrad: 102-34E, høyde over havet: 171 m

Gjeldene værobservasjon

Denne rapporten ble laget for 16 minutter siden, klokken 04:00 UTC
Vind 4 kt fra Øst-sørøst
Temperatur 30°C
Luftfuktighet 70%
Trykk 1014 hPa
Sikt: 7000 m
Spredte skyer i en høyde av 2000 ft
Brutte skyer i en høyde av 4000 ft

METAR: VLVT 240400Z 12004KT 7000 SCT020 BKN040 30/24 Q1014 NOSIG

Tid: 11:16 (04:16 UTC)

Varsel

Denne rapporten ble laget for 5 timer og 16 minutter siden, klokken 23:00 UTC
Varsel gyldig fra 24. klokken 00 UTC til 24. klokken 24 UTC
Vind 4 kt fra Øst
Sikt: 8000 m
Spredte skyer i en høyde av 2000 ft
Spredte skyer i en høyde av 4000 ft
Midlertidig
fra 24. klokken 14 UTC til 24. klokken 20 UTC
Sikt: 3000 m
Få skyer i en høyde av 1600 ft
Spredte skyer i en høyde av 4000 ft
dis

TAF: VLVT 232300Z 2400/2424 09004KT 8000 SCT020 SCT040 TEMPO 2414/2420 3000 BR FEW016 SCT040

Værobservasjoner og værvarsel for over 4000 flyplasser (METAR- og TAF-rapporter).

Tilgjengelige stasjoner er representert av de røde og gule prikkene på kartet.

Hold musepekeren over prikken for å se navnet på stasjonen.

Klikk så for å se værobservasjoner og -varsler.

For å forandre kartet kan du klikke på den grønne knappen med svart kryss for å zoome inn, på den grønne knappen med strek for å zoome ut, eller på de grønne pilene for å se tilstøtende kart.


METAR-TAF: